Chemung, Illinois
Current Conditions -  °F | °C
As of 7:15 AM on Tuesday 21 Oct 2014 (Local Time) from KBUU Reporting Station
Clear Clear  
Wind Chill: 36°   Ceiling: Unl
Heat Index: 40°   Visibility: 10mi
Dew Point: 36°   Wind: 6mph
Humidity: 84%   Direction: 360°N
Pressure: 30.13"   Gusts: NA
Location:  42.4267°N, 88.599°W
Report Text: KBUU 211215Z AUTO 36005KT 10SM CLR 05/02 A3013 RMK AO2 T00470022
Loading
Personal Weather Stations






























Interactive Weather Map
Tropical Storm Tracking
New forecast layout! Learn more

10-Day Weather Forecast

Advertisements
Track Severe Weather on mobile